Terminal Aerodrome Forecast
Issued by NWS Buffalo, NY

Current Version | Previous Version | Text Only | Print | Product List | Glossary On
Versions: 1 2 3 4 5 6 7 8 9 10 11 12 13 14 15 16 17 18 19 20 21 22 23 24 25 26 27
000
FTUS41 KBUF 031120
TAFBUF
TAF
KBUF 031120Z 0312/0412 VRB03KT P6SM SKC
     FM031800 02005KT P6SM SCT200
     FM040300 08005KT P6SM SCT040 BKN150
     FM041000 VRB03KT P6SM BKN040=

USA.gov is the U.S. government's official web portal to all federal, state and local government web resources and services.